createdAt,value
2023-05-12T00:00:57.891Z,56.47
2023-05-12T00:03:44.257Z,56.20
2023-05-12T00:06:31.276Z,56.23
2023-05-12T00:09:17.320Z,56.13
2023-05-12T00:12:03.809Z,56.26
2023-05-12T00:14:50.098Z,56.42
2023-05-12T00:17:36.319Z,56.21
2023-05-12T00:20:22.666Z,56.22
2023-05-12T00:23:08.775Z,56.09
2023-05-12T00:25:54.880Z,56.53
2023-05-12T00:28:41.152Z,56.00
2023-05-12T00:31:27.042Z,56.17
2023-05-12T00:34:13.092Z,56.24
2023-05-12T00:36:58.985Z,56.48
2023-05-12T00:39:44.820Z,56.62
2023-05-12T00:42:30.794Z,56.61
2023-05-12T00:45:17.408Z,56.60
2023-05-12T00:48:04.937Z,56.62
2023-05-12T00:50:51.178Z,56.69
2023-05-12T00:53:48.236Z,56.64
2023-05-12T00:56:39.548Z,56.87
2023-05-12T00:59:27.235Z,56.78
2023-05-12T01:02:13.392Z,56.73
2023-05-12T01:04:59.748Z,56.55
2023-05-12T01:07:47.036Z,56.56
2023-05-12T01:10:33.512Z,56.54
2023-05-12T01:13:19.497Z,56.61
2023-05-12T01:16:10.114Z,56.59
2023-05-12T01:18:56.929Z,56.48
2023-05-12T01:21:43.010Z,56.29
2023-05-12T01:24:30.953Z,56.54
2023-05-12T01:27:17.973Z,56.43
2023-05-12T01:30:05.955Z,56.50
2023-05-12T01:32:54.882Z,56.52
2023-05-12T01:35:41.268Z,56.09
2023-05-12T01:38:27.612Z,56.40
2023-05-12T01:41:13.596Z,56.72
2023-05-12T01:43:59.650Z,56.73
2023-05-12T01:46:47.213Z,56.65
2023-05-12T01:49:33.430Z,56.69
2023-05-12T01:52:20.708Z,56.58
2023-05-12T01:55:07.312Z,56.36
2023-05-12T01:57:59.525Z,56.38
2023-05-12T02:00:45.308Z,56.43
2023-05-12T02:03:35.250Z,56.41
2023-05-12T02:06:22.342Z,56.69
2023-05-12T02:09:09.045Z,56.60
2023-05-12T02:11:54.966Z,56.34
2023-05-12T02:14:40.949Z,56.55
2023-05-12T02:17:28.866Z,56.56
2023-05-12T02:20:18.546Z,56.25
2023-05-12T02:23:04.562Z,56.50
2023-05-12T02:25:52.573Z,56.43
2023-05-12T02:28:39.720Z,56.56
2023-05-12T02:31:25.944Z,56.46
2023-05-12T02:34:12.038Z,56.32
2023-05-12T02:36:58.020Z,56.64
2023-05-12T02:39:44.036Z,56.62
2023-05-12T02:42:35.552Z,56.88
2023-05-12T02:45:21.749Z,56.80
2023-05-12T02:48:07.848Z,56.57
2023-05-12T02:50:53.716Z,56.68
2023-05-12T02:53:39.703Z,56.72
2023-05-12T02:56:26.134Z,56.89
2023-05-12T02:59:12.490Z,56.42
2023-05-12T03:01:58.766Z,56.73
2023-05-12T03:04:45.022Z,56.29
2023-05-12T03:07:31.278Z,56.26
2023-05-12T03:10:18.808Z,56.60
2023-05-12T03:13:05.917Z,56.56
2023-05-12T03:15:52.308Z,56.79
2023-05-12T03:18:39.430Z,56.73
2023-05-12T03:21:26.020Z,56.43
2023-05-12T03:24:11.920Z,56.43
2023-05-12T03:26:57.755Z,56.76
2023-05-12T03:29:49.633Z,56.56
2023-05-12T03:32:39.215Z,56.46
2023-05-12T03:35:56.796Z,56.40
2023-05-12T03:38:44.357Z,56.48
2023-05-12T03:41:35.063Z,56.63
2023-05-12T03:44:21.470Z,56.72
2023-05-12T03:47:07.903Z,56.83
2023-05-12T03:49:55.934Z,56.58
2023-05-12T03:52:42.091Z,56.39
2023-05-12T03:55:28.271Z,56.88
2023-05-12T03:58:37.300Z,56.84
2023-05-12T04:01:24.455Z,56.50
2023-05-12T04:04:19.428Z,56.82
2023-05-12T04:07:06.733Z,56.70
2023-05-12T04:09:52.427Z,56.42
2023-05-12T04:12:38.505Z,56.48
2023-05-12T04:15:25.250Z,56.54
2023-05-12T04:18:11.046Z,56.95
2023-05-12T04:20:59.094Z,56.54
2023-05-12T04:23:45.659Z,56.64
2023-05-12T04:26:31.617Z,56.76
2023-05-12T04:29:22.028Z,56.80
2023-05-12T04:32:11.855Z,56.87
2023-05-12T04:34:58.126Z,56.84
2023-05-12T04:37:45.199Z,56.98
2023-05-12T04:40:34.116Z,56.51
2023-05-12T04:46:13.974Z,56.44
2023-05-12T04:49:37.272Z,56.80
2023-05-12T04:52:25.417Z,56.67
2023-05-12T04:55:11.526Z,56.65
2023-05-12T04:58:01.960Z,56.63
2023-05-12T05:01:28.594Z,56.88
2023-05-12T05:04:15.093Z,56.42
2023-05-12T05:07:01.150Z,56.89
2023-05-12T05:14:13.757Z,56.72
2023-05-12T05:17:00.236Z,56.90
2023-05-12T05:19:57.113Z,56.84
2023-05-12T05:22:52.454Z,56.98
2023-05-12T05:25:39.658Z,56.88
2023-05-12T05:28:26.739Z,56.78
2023-05-12T05:31:17.310Z,56.59
2023-05-12T05:34:03.806Z,56.81
2023-05-12T05:36:50.317Z,56.61
2023-05-12T05:39:36.344Z,56.56
2023-05-12T05:42:22.311Z,56.47
2023-05-12T05:45:10.208Z,56.73
2023-05-12T05:47:57.477Z,56.32
2023-05-12T05:50:44.736Z,56.49
2023-05-12T05:53:30.845Z,56.56
2023-05-12T05:56:16.722Z,56.36
2023-05-12T05:59:04.723Z,56.64
2023-05-12T06:01:50.533Z,56.25
2023-05-12T06:04:36.338Z,56.45
2023-05-12T06:07:22.305Z,56.47
2023-05-12T06:10:08.974Z,56.16
2023-05-12T06:12:54.636Z,56.35
2023-05-12T06:15:40.533Z,56.17
2023-05-12T06:18:26.705Z,56.12
2023-05-12T06:21:12.659Z,56.11
2023-05-12T06:23:58.279Z,56.01
2023-05-12T06:26:44.067Z,55.94
2023-05-12T06:29:30.074Z,56.10
2023-05-12T06:32:16.197Z,55.90
2023-05-12T06:35:02.446Z,55.79
2023-05-12T06:37:51.069Z,55.64
2023-05-12T06:40:37.301Z,55.78
2023-05-12T06:43:23.450Z,55.89
2023-05-12T06:46:14.681Z,55.69
2023-05-12T06:49:01.986Z,56.00
2023-05-12T06:51:48.573Z,55.72
2023-05-12T06:54:34.905Z,56.07
2023-05-12T06:57:20.570Z,55.91
2023-05-12T07:00:07.758Z,55.74
2023-05-12T07:02:53.631Z,55.83
2023-05-12T07:05:39.711Z,55.42
2023-05-12T07:08:26.091Z,55.77
2023-05-12T07:11:12.276Z,55.76
2023-05-12T07:13:57.922Z,55.65
2023-05-12T07:16:43.874Z,55.66
2023-05-12T07:19:30.220Z,55.32
2023-05-12T07:22:16.256Z,55.34
2023-05-12T07:25:02.380Z,55.30
2023-05-12T07:27:49.583Z,55.19
2023-05-12T07:30:36.245Z,55.21
2023-05-12T07:33:22.039Z,55.12
2023-05-12T07:36:09.024Z,54.87
2023-05-12T07:38:54.718Z,54.69
2023-05-12T07:41:41.224Z,54.85
2023-05-12T07:44:28.363Z,54.53
2023-05-12T07:47:15.187Z,54.40
2023-05-12T07:50:01.401Z,54.23
2023-05-12T07:52:52.152Z,54.09
2023-05-12T07:55:39.204Z,54.28
2023-05-12T07:58:25.496Z,54.28
2023-05-12T08:01:11.593Z,54.06
2023-05-12T08:03:57.368Z,54.17
2023-05-12T08:06:43.199Z,54.04
2023-05-12T08:09:29.026Z,53.85
2023-05-12T08:12:15.178Z,53.92
2023-05-12T08:15:01.482Z,53.67
2023-05-12T08:17:47.600Z,53.54
2023-05-12T08:20:33.555Z,53.51
2023-05-12T08:23:19.728Z,53.29
2023-05-12T08:26:05.564Z,53.08
2023-05-12T08:28:51.622Z,53.20
2023-05-12T08:31:38.733Z,52.92
2023-05-12T08:34:25.524Z,52.72
2023-05-12T08:37:11.893Z,52.75
2023-05-12T08:39:58.040Z,52.68
2023-05-12T08:42:47.292Z,52.60
2023-05-12T08:45:34.162Z,52.38
2023-05-12T08:48:20.496Z,51.99
2023-05-12T08:51:11.871Z,51.95
2023-05-12T08:53:57.777Z,51.89
2023-05-12T08:59:35.417Z,51.55
2023-05-12T09:02:24.739Z,51.28
2023-05-12T09:05:10.846Z,51.46
2023-05-12T09:07:57.069Z,51.21
2023-05-12T09:10:43.687Z,50.95
2023-05-12T09:13:46.252Z,50.90
2023-05-12T09:16:36.647Z,50.78
2023-05-12T09:19:22.661Z,50.77
2023-05-12T09:22:14.772Z,50.41
2023-05-12T09:25:01.234Z,50.33
2023-05-12T09:27:49.338Z,50.27
2023-05-12T09:30:38.422Z,50.08
2023-05-12T09:33:25.551Z,50.03
2023-05-12T09:36:12.338Z,50.09
2023-05-12T09:39:07.269Z,49.75
2023-05-12T09:41:54.007Z,49.76
2023-05-12T09:44:41.300Z,49.56
2023-05-12T09:47:40.791Z,49.46
2023-05-12T09:50:28.895Z,49.37
2023-05-12T09:53:19.158Z,49.31
2023-05-12T09:56:05.466Z,49.10
2023-05-12T09:58:51.524Z,48.95
2023-05-12T10:01:37.680Z,48.95
2023-05-12T10:04:23.982Z,48.98
2023-05-12T10:07:12.301Z,48.88
2023-05-12T10:10:00.164Z,48.85
2023-05-12T10:12:46.442Z,48.83
2023-05-12T10:15:33.856Z,48.71
2023-05-12T10:18:19.982Z,48.83
2023-05-12T10:21:07.038Z,48.59
2023-05-12T10:23:54.511Z,48.57
2023-05-12T10:26:42.469Z,48.64
2023-05-12T10:29:33.018Z,48.52
2023-05-12T10:32:19.038Z,48.22
2023-05-12T10:35:13.261Z,48.16
2023-05-12T10:38:09.806Z,48.19
2023-05-12T10:41:01.257Z,47.81
2023-05-12T10:43:49.207Z,47.65
2023-05-12T10:46:35.728Z,47.26
2023-05-12T10:49:39.156Z,47.18
2023-05-12T10:52:27.794Z,47.04
2023-05-12T10:55:14.454Z,47.16
2023-05-12T10:58:12.312Z,47.17
2023-05-12T11:01:08.140Z,47.02
2023-05-12T11:03:59.175Z,46.89
2023-05-12T11:06:46.982Z,46.54
2023-05-12T11:09:36.918Z,46.43
2023-05-12T11:12:32.713Z,46.35
2023-05-12T11:15:19.235Z,46.37
2023-05-12T11:18:06.007Z,46.33
2023-05-12T11:20:52.027Z,46.24
2023-05-12T11:23:37.892Z,45.95
2023-05-12T11:26:23.849Z,46.02
2023-05-12T11:29:11.452Z,45.93
2023-05-12T11:31:58.778Z,45.75
2023-05-12T11:34:45.507Z,45.80
2023-05-12T11:37:37.046Z,45.46
2023-05-12T11:40:23.472Z,45.02
2023-05-12T11:43:10.613Z,44.86
2023-05-12T11:45:56.987Z,44.69
2023-05-12T11:48:43.098Z,44.45
2023-05-12T11:51:29.014Z,44.38
2023-05-12T11:54:15.197Z,44.13
2023-05-12T11:57:01.401Z,44.14
2023-05-12T12:00:01.923Z,44.24
2023-05-12T12:02:51.564Z,44.30
2023-05-12T12:05:38.370Z,44.26
2023-05-12T12:08:24.663Z,44.50
2023-05-12T12:11:11.506Z,45.32
2023-05-12T12:13:57.813Z,46.36
2023-05-12T12:16:43.948Z,46.46
2023-05-12T12:19:30.454Z,46.83
2023-05-12T12:22:16.510Z,47.44
2023-05-12T12:25:02.937Z,47.75
2023-05-12T12:27:49.345Z,48.04
2023-05-12T12:30:35.400Z,48.72
2023-05-12T12:33:21.617Z,48.92
2023-05-12T12:36:09.264Z,49.38
2023-05-12T12:38:55.433Z,50.19
2023-05-12T12:41:41.331Z,50.17
2023-05-12T12:44:27.855Z,50.17
2023-05-12T12:47:13.860Z,50.31
2023-05-12T12:49:59.954Z,50.26
2023-05-12T12:52:46.040Z,50.34
2023-05-12T12:55:32.181Z,50.61
2023-05-12T12:58:17.986Z,50.78
2023-05-12T13:01:04.146Z,50.77
2023-05-12T13:03:50.235Z,50.66
2023-05-12T13:06:36.226Z,50.78
2023-05-12T13:09:22.362Z,50.58
2023-05-12T13:12:08.801Z,50.05
2023-05-12T13:14:55.022Z,49.46
2023-05-12T13:17:41.168Z,48.48
2023-05-12T13:20:27.414Z,48.03
2023-05-12T13:23:13.913Z,47.29
2023-05-12T13:25:59.842Z,46.62
2023-05-12T13:28:46.828Z,46.19
2023-05-12T13:31:32.650Z,45.46
2023-05-12T13:34:18.792Z,44.83
2023-05-12T13:37:05.124Z,43.81
2023-05-12T13:39:51.071Z,42.67
2023-05-12T13:42:37.108Z,42.10
2023-05-12T13:45:23.182Z,41.39
2023-05-12T13:48:10.409Z,40.48
2023-05-12T13:50:56.587Z,39.41
2023-05-12T13:53:43.202Z,39.05
2023-05-12T13:56:35.877Z,38.73
2023-05-12T13:59:21.843Z,38.62
2023-05-12T14:02:09.861Z,37.96
2023-05-12T14:04:56.685Z,37.73
2023-05-12T14:07:42.765Z,37.78
2023-05-12T14:10:28.665Z,37.24
2023-05-12T14:13:14.671Z,36.92
2023-05-12T14:16:00.533Z,36.97
2023-05-12T14:18:46.342Z,37.02
2023-05-12T14:21:32.465Z,36.88
2023-05-12T14:24:18.247Z,37.49
2023-05-12T14:27:04.517Z,37.45
2023-05-12T14:29:51.771Z,37.87
2023-05-12T14:32:38.058Z,38.14
2023-05-12T14:35:27.559Z,37.91
2023-05-12T14:38:14.058Z,37.61
2023-05-12T14:40:59.862Z,37.83
2023-05-12T14:43:45.888Z,37.70
2023-05-12T14:46:31.855Z,37.13
2023-05-12T14:49:21.160Z,37.24
2023-05-12T14:52:07.044Z,37.61
2023-05-12T14:54:52.801Z,37.63
2023-05-12T14:57:39.193Z,37.66
2023-05-12T15:00:25.376Z,37.84
2023-05-12T15:03:11.759Z,37.95
2023-05-12T15:06:06.477Z,37.89
2023-05-12T15:08:53.096Z,38.10
2023-05-12T15:11:39.729Z,38.08
2023-05-12T15:14:25.829Z,38.34
2023-05-12T15:17:13.242Z,38.65
2023-05-12T15:19:59.543Z,38.60
2023-05-12T15:22:48.311Z,39.07
2023-05-12T15:26:20.791Z,39.18
2023-05-12T15:29:16.467Z,39.66
2023-05-12T15:32:03.135Z,39.69
2023-05-12T15:34:49.159Z,40.25
2023-05-12T15:37:35.417Z,40.39
2023-05-12T15:40:21.497Z,40.57
2023-05-12T15:43:07.921Z,40.79
2023-05-12T15:45:53.729Z,41.13
2023-05-12T15:48:39.932Z,41.46
2023-05-12T15:51:26.084Z,41.85
2023-05-12T15:54:12.615Z,41.75
2023-05-12T15:56:59.094Z,41.89
2023-05-12T15:59:46.044Z,41.96
2023-05-12T16:02:33.139Z,42.42
2023-05-12T16:05:19.775Z,42.54
2023-05-12T16:08:05.763Z,42.72
2023-05-12T16:10:51.964Z,42.91
2023-05-12T16:13:38.104Z,43.15
2023-05-12T16:16:24.482Z,42.99
2023-05-12T16:19:10.861Z,43.49
2023-05-12T16:21:58.555Z,43.60
2023-05-12T16:24:44.590Z,43.72
2023-05-12T16:27:33.600Z,43.66
2023-05-12T16:30:21.028Z,43.55
2023-05-12T16:33:07.367Z,43.53
2023-05-12T16:35:55.508Z,43.70
2023-05-12T16:38:41.699Z,43.68
2023-05-12T16:41:28.776Z,43.89
2023-05-12T16:44:15.012Z,43.76
2023-05-12T16:47:00.854Z,43.90
2023-05-12T16:49:47.058Z,43.85
2023-05-12T16:52:33.659Z,43.94
2023-05-12T16:55:20.001Z,44.19
2023-05-12T16:58:07.248Z,44.20
2023-05-12T17:00:53.703Z,44.39
2023-05-12T17:03:39.994Z,44.44
2023-05-12T17:06:25.962Z,44.55
2023-05-12T17:09:13.342Z,44.82
2023-05-12T17:11:59.366Z,44.81
2023-05-12T17:14:48.000Z,44.98
2023-05-12T17:17:44.258Z,45.05
2023-05-12T17:20:30.445Z,45.16
2023-05-12T17:23:20.510Z,45.24
2023-05-12T17:26:06.813Z,45.00
2023-05-12T17:28:53.333Z,45.23
2023-05-12T17:31:39.688Z,45.21
2023-05-12T17:34:25.723Z,45.37
2023-05-12T17:37:11.994Z,45.53
2023-05-12T17:39:57.955Z,45.68
2023-05-12T17:42:44.759Z,45.60
2023-05-12T17:45:30.851Z,45.72
2023-05-12T17:48:16.994Z,45.74
2023-05-12T17:51:03.498Z,45.76
2023-05-12T17:53:49.424Z,45.86
2023-05-12T17:56:35.393Z,45.99
2023-05-12T17:59:21.414Z,46.10
2023-05-12T18:02:07.459Z,46.06
2023-05-12T18:04:53.672Z,46.10
2023-05-12T18:07:39.578Z,46.08
2023-05-12T18:10:25.738Z,46.01
2023-05-12T18:13:11.908Z,46.28
2023-05-12T18:15:58.013Z,46.47
2023-05-12T18:18:46.151Z,46.45
2023-05-12T18:21:32.815Z,46.69
2023-05-12T18:24:19.129Z,46.47
2023-05-12T18:27:06.580Z,46.83
2023-05-12T18:29:52.896Z,46.67
2023-05-12T18:32:41.209Z,46.80
2023-05-12T18:35:27.455Z,46.58
2023-05-12T18:38:13.793Z,46.91
2023-05-12T18:41:00.422Z,47.17
2023-05-12T18:43:46.210Z,47.23
2023-05-12T18:46:32.087Z,47.05
2023-05-12T18:49:17.882Z,47.30
2023-05-12T18:52:06.141Z,47.42
2023-05-12T18:54:52.228Z,47.22
2023-05-12T18:57:38.368Z,47.58
2023-05-12T19:00:26.543Z,47.37
2023-05-12T19:03:12.926Z,47.41
2023-05-12T19:05:58.991Z,47.38
2023-05-12T19:08:46.277Z,47.59
2023-05-12T19:11:32.377Z,47.65
2023-05-12T19:14:18.469Z,47.68
2023-05-12T19:17:05.165Z,47.73
2023-05-12T19:19:50.925Z,47.62
2023-05-12T19:22:36.966Z,47.82
2023-05-12T19:25:23.771Z,47.77
2023-05-12T19:28:12.005Z,47.65
2023-05-12T19:30:59.091Z,47.96
2023-05-12T19:33:46.304Z,47.99
2023-05-12T19:36:36.092Z,47.94
2023-05-12T19:39:22.362Z,48.10
2023-05-12T19:42:08.613Z,48.19
2023-05-12T19:44:54.877Z,48.20
2023-05-12T19:47:41.500Z,48.19
2023-05-12T19:50:28.688Z,48.27
2023-05-12T19:53:15.052Z,48.46
2023-05-12T19:56:01.378Z,48.67
2023-05-12T19:58:48.009Z,48.76
2023-05-12T20:01:34.140Z,48.93
2023-05-12T20:04:20.572Z,49.10
2023-05-12T20:07:06.821Z,48.95
2023-05-12T20:09:53.182Z,48.99
2023-05-12T20:12:39.583Z,48.97
2023-05-12T20:15:25.948Z,49.32
2023-05-12T20:18:14.849Z,49.26
2023-05-12T20:21:01.313Z,49.19
2023-05-12T20:23:47.380Z,49.49
2023-05-12T20:26:33.440Z,49.49
2023-05-12T20:29:21.121Z,49.60
2023-05-12T20:32:07.025Z,49.70
2023-05-12T20:34:53.242Z,49.61
2023-05-12T20:37:40.605Z,49.78
2023-05-12T20:40:26.933Z,49.52
2023-05-12T20:43:14.608Z,49.75
2023-05-12T20:46:04.120Z,49.66
2023-05-12T20:48:50.576Z,49.87
2023-05-12T20:51:36.529Z,49.77
2023-05-12T20:54:22.559Z,49.73
2023-05-12T20:57:10.410Z,50.00
2023-05-12T20:59:57.073Z,50.17
2023-05-12T21:02:42.921Z,50.02
2023-05-12T21:05:29.202Z,50.39
2023-05-12T21:08:15.883Z,50.60
2023-05-12T21:11:01.924Z,50.67
2023-05-12T21:13:48.393Z,50.72
2023-05-12T21:16:34.540Z,50.77
2023-05-12T21:19:20.981Z,50.64
2023-05-12T21:22:07.525Z,50.65
2023-05-12T21:24:53.713Z,50.41
2023-05-12T21:27:40.871Z,50.32
2023-05-12T21:30:28.025Z,50.51
2023-05-12T21:33:15.256Z,50.58
2023-05-12T21:36:01.280Z,50.80
2023-05-12T21:38:48.007Z,50.91
2023-05-12T21:41:34.251Z,51.06
2023-05-12T21:44:20.453Z,51.04
2023-05-12T21:47:06.408Z,51.10
2023-05-12T21:49:56.184Z,50.73
2023-05-12T21:52:42.189Z,51.05
2023-05-12T21:55:28.094Z,51.21
2023-05-12T21:58:14.192Z,51.27
2023-05-12T22:01:00.066Z,51.21
2023-05-12T22:03:46.261Z,51.14
2023-05-12T22:06:32.518Z,51.09
2023-05-12T22:09:19.458Z,51.00
2023-05-12T22:12:05.982Z,51.61
2023-05-12T22:14:52.197Z,51.46
2023-05-12T22:17:38.600Z,51.68
2023-05-12T22:20:24.760Z,51.77
2023-05-12T22:23:10.915Z,51.88
2023-05-12T22:25:56.759Z,51.67
2023-05-12T22:28:44.586Z,51.68
2023-05-12T22:31:32.869Z,51.67
2023-05-12T22:34:18.745Z,51.70
2023-05-12T22:37:04.974Z,51.85
2023-05-12T22:39:51.218Z,51.57
2023-05-12T22:42:37.229Z,51.74
2023-05-12T22:45:23.390Z,51.52
2023-05-12T22:48:09.414Z,52.18
2023-05-12T22:50:55.591Z,52.08
2023-05-12T22:53:41.616Z,52.18
2023-05-12T22:56:27.768Z,51.97
2023-05-12T22:59:13.594Z,52.32
2023-05-12T23:01:59.864Z,51.88
2023-05-12T23:04:46.224Z,52.22
2023-05-12T23:07:32.352Z,51.98
2023-05-12T23:10:18.478Z,51.88
2023-05-12T23:13:04.263Z,52.10
2023-05-12T23:15:49.988Z,51.96
2023-05-12T23:18:35.751Z,52.26
2023-05-12T23:21:21.515Z,52.34
2023-05-12T23:24:09.025Z,52.48
2023-05-12T23:27:04.604Z,52.38
2023-05-12T23:29:53.581Z,52.54
2023-05-12T23:32:40.023Z,52.18
2023-05-12T23:35:26.611Z,52.51
2023-05-12T23:38:12.657Z,52.50
2023-05-12T23:40:58.535Z,52.30
2023-05-12T23:43:44.427Z,52.11
2023-05-12T23:46:30.600Z,52.42
2023-05-12T23:49:16.648Z,52.49
2023-05-12T23:52:02.601Z,52.45
2023-05-12T23:54:48.481Z,52.39
2023-05-12T23:57:34.190Z,52.53
